Time;durP1;ratioP1;P1;durP2;ratioP2;P2;SDS_P1;SDS_P2;PMS_P1;PMS_P2;Temp;Humidity;BMP_temperature;BMP_pressure;BME280_temperature;BME280_humidity;BME280_pressure;Samples;Min_cycle;Max_cycle;Signal;HPM_P1;HPM_P2
2022/01/05 00:01:53;;;;;;;0.00;0.00;;;7.50;90.30;;;;;;4162256;28;20119;-60
2022/01/05 00:04:36;;;;;;;0.00;0.00;;;7.60;90.40;;;;;;4162334;28;20057;-60
2022/01/05 00:07:19;;;;;;;0.00;0.00;;;7.70;90.10;;;;;;4176656;28;20510;-60
2022/01/05 00:09:55;;;;;;;0.00;0.00;;;7.70;90.00;;;;;;4162257;28;20049;-60
2022/01/05 00:12:31;;;;;;;0.00;0.00;;;7.90;89.80;;;;;;4162043;28;20140;-60
2022/01/05 00:15:15;;;;;;;0.00;0.00;;;7.70;89.80;;;;;;4162394;28;20430;-60
2022/01/05 00:17:50;;;;;;;0.00;0.00;;;7.80;89.60;;;;;;4176199;28;20045;-60
2022/01/05 00:20:39;;;;;;;0.00;0.00;;;7.90;88.80;;;;;;4162180;28;20072;-60
2022/01/05 00:23:21;;;;;;;0.00;0.00;;;7.80;88.90;;;;;;4162065;28;20060;-61
2022/01/05 00:26:04;;;;;;;0.00;0.00;;;7.70;89.00;;;;;;4174726;28;20102;-60
2022/01/05 00:28:46;;;;;;;0.00;0.00;;;7.70;89.00;;;;;;4162104;28;20054;-59
2022/01/05 00:31:28;;;;;;;0.00;0.00;;;7.70;89.20;;;;;;4161895;28;20111;-60
2022/01/05 00:34:03;;;;;;;0.00;0.00;;;7.80;88.80;;;;;;4162298;28;20515;-61
2022/01/05 00:36:46;;;;;;;0.00;0.00;;;7.90;88.10;;;;;;4162382;28;20442;-61
2022/01/05 00:39:21;;;;;;;0.00;0.00;;;7.80;87.80;;;;;;4162094;28;20046;-62
2022/01/05 00:41:56;;;;;;;0.00;0.00;;;7.70;87.40;;;;;;4161845;28;20053;-61
2022/01/05 00:44:45;;;;;;;0.00;0.00;;;7.40;88.10;;;;;;4161908;28;20087;-61
2022/01/05 00:47:27;;;;;;;0.00;0.00;;;7.40;87.90;;;;;;4162025;28;20092;-61
2022/01/05 00:50:10;;;;;;;0.00;0.00;;;7.50;87.70;;;;;;4161983;28;20077;-61
2022/01/05 00:53:00;;;;;;;0.00;0.00;;;7.60;87.90;;;;;;4162072;28;20120;-61
2022/01/05 00:55:30;;;;;;;0.00;0.00;;;7.50;87.60;;;;;;4162247;28;20045;-60
2022/01/05 00:58:12;;;;;;;0.00;0.00;;;7.40;88.20;;;;;;4162298;28;20096;-61
2022/01/05 01:00:56;;;;;;;0.00;0.00;;;7.50;88.00;;;;;;4162175;28;20119;-61
2022/01/05 01:03:32;;;;;;;0.00;0.00;;;7.60;87.70;;;;;;4164652;28;20053;-60
2022/01/05 01:06:15;;;;;;;0.00;0.00;;;7.70;87.70;;;;;;4166032;28;20103;-62
2022/01/05 01:08:50;;;;;;;0.00;0.00;;;7.70;87.30;;;;;;4164844;28;20107;-61
2022/01/05 01:11:33;;;;;;;0.00;0.00;;;7.80;86.80;;;;;;4165488;28;20045;-60
2022/01/05 01:14:09;;;;;;;0.00;0.00;;;7.80;86.60;;;;;;4165677;28;20049;-62
2022/01/05 01:16:52;;;;;;;0.00;0.00;;;7.80;86.70;;;;;;4165587;28;20053;-61
2022/01/05 01:19:27;;;;;;;0.00;0.00;;;7.70;86.70;;;;;;4164843;28;20045;-61
2022/01/05 01:22:15;;;;;;;0.00;0.00;;;7.60;86.80;;;;;;4164374;28;20037;-61
2022/01/05 01:24:55;;;;;;;0.00;0.00;;;7.50;86.80;;;;;;4164428;28;20058;-61
2022/01/05 01:27:40;;;;;;;0.00;0.00;;;7.50;87.20;;;;;;4164216;28;20527;-61
2022/01/05 01:30:32;;;;;;;0.00;0.00;;;7.50;87.00;;;;;;4165485;28;20053;-60
2022/01/05 01:33:25;;;;;;;0.00;0.00;;;7.50;87.20;;;;;;4164485;28;20485;-61
2022/01/05 01:36:01;;;;;;;0.00;0.00;;;7.50;88.50;;;;;;4164615;28;20133;-60
2022/01/05 01:38:55;;;;;;;0.00;0.00;;;7.30;87.70;;;;;;4165353;28;20069;-60
2022/01/05 01:41:32;;;;;;;0.00;0.00;;;7.30;88.10;;;;;;4165072;28;20049;-61
2022/01/05 01:44:26;;;;;;;0.00;0.00;;;7.40;87.90;;;;;;4165252;28;20060;-60
2022/01/05 01:47:05;;;;;;;0.00;0.00;;;7.30;87.70;;;;;;4165287;28;20461;-61
2022/01/05 01:49:47;;;;;;;0.00;0.00;;;7.00;88.50;;;;;;4165283;28;20049;-61
2022/01/05 01:52:23;;;;;;;0.00;0.00;;;7.00;89.20;;;;;;4152420;28;20061;-60
2022/01/05 01:55:08;;;;;;;0.00;0.00;;;6.90;89.10;;;;;;4164396;28;20499;-60
2022/01/05 01:57:51;;;;;;;0.00;0.00;;;7.00;89.10;;;;;;4164125;28;20047;-61
2022/01/05 02:00:29;;;;;;;0.00;0.00;;;6.80;89.60;;;;;;4164292;28;20099;-60
2022/01/05 02:03:14;;;;;;;0.00;0.00;;;6.70;90.00;;;;;;4180732;28;20396;-61
2022/01/05 02:05:57;;;;;;;0.00;0.00;;;6.90;89.90;;;;;;4181412;28;20107;-61
2022/01/05 02:08:34;;;;;;;0.00;0.00;;;7.00;89.40;;;;;;4180550;28;20045;-61
2022/01/05 02:11:13;;;;;;;0.00;0.00;;;7.20;89.10;;;;;;4180257;28;20100;-61
2022/01/05 02:13:58;;;;;;;0.00;0.00;;;7.20;88.90;;;;;;4179406;28;20136;-61
2022/01/05 02:16:39;;;;;;;0.00;0.00;;;7.30;88.60;;;;;;4181409;28;20045;-61
2022/01/05 02:19:22;;;;;;;0.00;0.00;;;7.30;89.00;;;;;;4180430;28;20480;-61
2022/01/05 02:22:06;;;;;;;0.00;0.00;;;7.40;89.20;;;;;;4180229;28;20445;-61
2022/01/05 02:24:48;;;;;;;0.00;0.00;;;7.40;89.20;;;;;;4180265;28;20052;-61
2022/01/05 02:27:25;;;;;;;0.00;0.00;;;7.50;89.10;;;;;;4178853;28;20171;-60
2022/01/05 02:30:10;;;;;;;0.00;0.00;;;7.50;88.90;;;;;;4180258;28;20596;-61
2022/01/05 02:32:45;;;;;;;0.00;0.00;;;7.50;89.00;;;;;;4180022;28;20049;-62
2022/01/05 02:35:27;;;;;;;0.00;0.00;;;7.60;88.60;;;;;;4180253;28;20057;-61
2022/01/05 02:38:03;;;;;;;0.00;0.00;;;7.60;88.30;;;;;;4179875;28;20053;-61
2022/01/05 02:40:38;;;;;;;0.00;0.00;;;7.50;88.20;;;;;;4179988;28;20106;-62
2022/01/05 02:43:20;;;;;;;0.00;0.00;;;7.50;88.30;;;;;;4179828;28;20053;-61
2022/01/05 02:45:56;;;;;;;0.00;0.00;;;7.60;88.10;;;;;;4180221;28;20741;-61
2022/01/05 02:48:38;;;;;;;0.00;0.00;;;7.50;88.20;;;;;;4179705;28;20049;-61
2022/01/05 02:51:14;;;;;;;0.00;0.00;;;7.40;87.80;;;;;;4179372;28;20049;-61
2022/01/05 02:53:56;;;;;;;0.00;0.00;;;7.30;88.20;;;;;;4167735;28;20115;-61
2022/01/05 02:56:32;;;;;;;0.00;0.00;;;7.20;89.00;;;;;;4179543;28;20100;-61
2022/01/05 02:59:15;;;;;;;0.00;0.00;;;7.10;88.90;;;;;;4179764;28;20505;-61
2022/01/05 03:01:51;;;;;;;0.00;0.00;;;7.20;88.90;;;;;;4178934;28;20395;-61
2022/01/05 03:04:33;;;;;;;0.00;0.00;;;7.20;88.60;;;;;;4176023;28;20513;-61
2022/01/05 03:07:09;;;;;;;0.00;0.00;;;7.10;88.80;;;;;;4163809;28;20099;-61
2022/01/05 03:09:52;;;;;;;0.00;0.00;;;7.10;88.80;;;;;;4179609;28;20531;-61
2022/01/05 03:12:36;;;;;;;0.00;0.00;;;7.10;88.60;;;;;;4193164;28;20052;-61
2022/01/05 03:15:12;;;;;;;0.00;0.00;;;7.10;88.80;;;;;;4178780;28;20536;-61
2022/01/05 03:18:01;;;;;;;0.00;0.00;;;7.20;88.50;;;;;;4192312;28;20106;-61
2022/01/05 03:20:45;;;;;;;0.00;0.00;;;7.30;88.50;;;;;;4192937;28;20131;-61
2022/01/05 03:23:20;;;;;;;0.00;0.00;;;7.30;88.20;;;;;;4179276;28;20110;-61
2022/01/05 03:26:02;;;;;;;0.00;0.00;;;7.30;87.80;;;;;;4165115;28;20059;-61
2022/01/05 03:28:44;;;;;;;0.00;0.00;;;7.30;88.10;;;;;;4193109;28;20049;-61
2022/01/05 03:31:26;;;;;;;0.00;0.00;;;7.10;88.40;;;;;;4192966;28;20048;-61
2022/01/05 03:34:16;;;;;;;0.00;0.00;;;7.10;88.50;;;;;;4179108;28;20079;-61
2022/01/05 03:36:52;;;;;;;0.00;0.00;;;6.90;89.10;;;;;;4179251;28;20544;-61
2022/01/05 03:39:34;;;;;;;0.00;0.00;;;6.90;89.80;;;;;;4193150;28;20599;-64
2022/01/05 03:42:11;;;;;;;0.00;0.00;;;6.80;89.30;;;;;;4192736;28;20053;-61
2022/01/05 03:44:53;;;;;;;0.00;0.00;;;6.90;89.50;;;;;;4193027;28;20139;-61
2022/01/05 03:47:29;;;;;;;0.00;0.00;;;6.90;89.20;;;;;;4192885;28;20049;-61
2022/01/05 03:50:11;;;;;;;0.00;0.00;;;6.20;91.00;;;;;;4192862;28;20052;-63
2022/01/05 03:52:47;;;;;;;0.00;0.00;;;6.20;91.30;;;;;;4193042;28;20405;-61
2022/01/05 03:55:22;;;;;;;0.00;0.00;;;6.20;91.10;;;;;;4167190;28;20481;-60
2022/01/05 03:58:06;;;;;;;0.00;0.00;;;6.10;91.60;;;;;;4178720;28;20049;-61
2022/01/05 04:00:47;;;;;;;0.00;0.00;;;6.20;91.50;;;;;;4178558;28;20044;-60
2022/01/05 04:03:29;;;;;;;0.00;0.00;;;6.20;91.60;;;;;;4179011;28;20049;-62
2022/01/05 04:06:06;;;;;;;0.00;0.00;;;5.90;91.70;;;;;;4192844;28;20060;-62
2022/01/05 04:08:48;;;;;;;0.00;0.00;;;5.70;91.90;;;;;;4192763;28;20048;-62
2022/01/05 04:11:23;;;;;;;0.00;0.00;;;5.80;92.30;;;;;;4178716;28;20557;-62
2022/01/05 04:14:05;;;;;;;0.00;0.00;;;6.10;92.10;;;;;;4178752;28;20060;-63
2022/01/05 04:16:47;;;;;;;0.00;0.00;;;6.30;91.70;;;;;;4192639;28;20075;-61
2022/01/05 04:19:23;;;;;;;0.00;0.00;;;6.40;91.50;;;;;;4178980;28;20060;-62
2022/01/05 04:22:06;;;;;;;0.00;0.00;;;6.20;91.60;;;;;;4192404;28;20106;-62
2022/01/05 04:24:42;;;;;;;0.00;0.00;;;6.00;91.80;;;;;;4178604;28;20041;-63
2022/01/05 04:27:31;;;;;;;0.00;0.00;;;6.00;91.90;;;;;;4165617;28;20574;-62
2022/01/05 04:30:14;;;;;;;0.00;0.00;;;6.10;91.90;;;;;;4192440;28;20147;-61
2022/01/05 04:32:56;;;;;;;0.00;0.00;;;6.00;92.00;;;;;;4192692;28;20526;-62
2022/01/05 04:35:52;;;;;;;0.00;0.00;;;6.10;91.90;;;;;;4192662;28;20540;-61
2022/01/05 04:38:35;;;;;;;0.00;0.00;;;6.10;92.00;;;;;;4181946;28;20041;-60
2022/01/05 04:41:18;;;;;;;0.00;0.00;;;6.30;91.90;;;;;;4195616;28;20051;-61
2022/01/05 04:44:00;;;;;;;0.00;0.00;;;6.30;91.80;;;;;;4181744;28;20053;-59
2022/01/05 04:46:35;;;;;;;0.00;0.00;;;6.40;91.70;;;;;;4195784;28;20055;-60
2022/01/05 04:49:10;;;;;;;0.00;0.00;;;6.50;91.60;;;;;;4181576;28;20121;-60
2022/01/05 04:51:53;;;;;;;0.00;0.00;;;6.70;91.50;;;;;;4181528;28;20053;-61
2022/01/05 04:54:28;;;;;;;0.00;0.00;;;6.80;91.40;;;;;;4181780;28;20041;-60
2022/01/05 04:57:11;;;;;;;0.00;0.00;;;6.70;91.50;;;;;;4182103;28;20433;-61
2022/01/05 04:59:47;;;;;;;0.00;0.00;;;6.80;91.50;;;;;;4181807;28;20057;-60
2022/01/05 05:02:29;;;;;;;0.00;0.00;;;6.80;91.50;;;;;;4181810;28;20513;-62
2022/01/05 05:05:05;;;;;;;0.00;0.00;;;6.70;91.70;;;;;;4195678;28;20051;-61
2022/01/05 05:07:40;;;;;;;0.00;0.00;;;6.80;91.80;;;;;;4181911;28;20430;-59
2022/01/05 05:10:24;;;;;;;0.00;0.00;;;6.70;91.80;;;;;;4195792;28;20087;-61
2022/01/05 05:13:16;;;;;;;0.00;0.00;;;6.70;91.90;;;;;;4195749;28;20048;-59
2022/01/05 05:16:08;;;;;;;0.00;0.00;;;6.70;91.90;;;;;;4181890;28;20041;-59
2022/01/05 05:18:51;;;;;;;0.00;0.00;;;6.70;91.90;;;;;;4181868;28;20087;-60
2022/01/05 05:21:39;;;;;;;0.00;0.00;;;6.90;91.90;;;;;;4181591;28;20419;-60
2022/01/05 05:24:15;;;;;;;0.00;0.00;;;6.80;91.80;;;;;;4195606;28;20458;-60
2022/01/05 05:26:57;;;;;;;0.00;0.00;;;6.80;91.90;;;;;;4180373;28;20050;-59
2022/01/05 05:29:39;;;;;;;0.00;0.00;;;6.80;91.80;;;;;;4195293;28;20102;-59
2022/01/05 05:32:16;;;;;;;0.00;0.00;;;6.60;91.90;;;;;;4182367;28;20053;-60
2022/01/05 05:34:58;;;;;;;0.00;0.00;;;6.70;91.80;;;;;;4164989;28;20083;-60
2022/01/05 05:37:34;;;;;;;0.00;0.00;;;6.70;91.60;;;;;;4164930;28;20115;-60
2022/01/05 05:40:11;;;;;;;0.00;0.00;;;6.80;91.70;;;;;;4165028;28;20100;-59
2022/01/05 05:42:53;;;;;;;0.00;0.00;;;6.70;91.60;;;;;;4164809;28;20050;-60
2022/01/05 05:45:28;;;;;;;0.00;0.00;;;6.70;91.70;;;;;;4164812;28;20073;-60
2022/01/05 05:48:12;;;;;;;0.00;0.00;;;6.80;91.60;;;;;;4178626;28;20037;-60
2022/01/05 05:50:47;;;;;;;0.00;0.00;;;6.80;91.40;;;;;;4178310;28;20084;-60
2022/01/05 05:53:29;;;;;;;0.00;0.00;;;6.80;91.20;;;;;;4164825;28;20585;-59
2022/01/05 05:56:05;;;;;;;0.00;0.00;;;6.70;91.50;;;;;;4152986;28;20450;-59
2022/01/05 05:58:47;;;;;;;0.00;0.00;;;6.70;91.50;;;;;;4178589;28;20435;-59
2022/01/05 06:01:29;;;;;;;0.00;0.00;;;6.70;91.50;;;;;;4178008;28;20052;-59
2022/01/05 06:04:05;;;;;;;0.00;0.00;;;6.50;91.60;;;;;;4178487;28;20106;-59
2022/01/05 06:06:54;;;;;;;0.00;0.00;;;6.30;91.90;;;;;;4152602;28;20092;-60
2022/01/05 06:09:36;;;;;;;0.00;0.00;;;6.50;91.90;;;;;;4178559;28;20502;-60
2022/01/05 06:12:11;;;;;;;0.00;0.00;;;6.50;91.90;;;;;;4178015;28;20572;-60
2022/01/05 06:14:53;;;;;;;0.00;0.00;;;6.60;91.90;;;;;;4164414;28;20083;-62
2022/01/05 06:17:28;;;;;;;0.00;0.00;;;6.50;92.00;;;;;;4164287;28;20099;-62
2022/01/05 06:20:11;;;;;;;0.00;0.00;;;6.50;92.00;;;;;;4177845;28;20049;-62
2022/01/05 06:22:53;;;;;;;0.00;0.00;;;6.70;91.90;;;;;;4178012;28;20095;-61
2022/01/05 06:25:29;;;;;;;0.00;0.00;;;6.60;91.70;;;;;;4164959;28;20060;-62
2022/01/05 06:28:11;;;;;;;0.00;0.00;;;6.70;91.90;;;;;;4176681;28;20041;-60
2022/01/05 06:30:46;;;;;;;0.00;0.00;;;6.60;91.90;;;;;;4163662;28;20050;-60
2022/01/05 06:33:28;;;;;;;0.00;0.00;;;6.60;91.80;;;;;;4177808;28;20053;-61
2022/01/05 06:36:04;;;;;;;0.00;0.00;;;6.70;91.80;;;;;;4177956;28;20438;-60
2022/01/05 06:38:47;;;;;;;0.00;0.00;;;6.80;91.60;;;;;;4152382;28;20092;-60
2022/01/05 06:41:29;;;;;;;0.00;0.00;;;6.90;91.50;;;;;;4177604;28;20254;-60
2022/01/05 06:44:12;;;;;;;0.00;0.00;;;7.00;91.30;;;;;;4164056;28;20103;-60
2022/01/05 06:46:47;;;;;;;0.00;0.00;;;6.90;91.30;;;;;;4163664;28;20470;-60
2022/01/05 06:49:29;;;;;;;0.00;0.00;;;6.90;91.30;;;;;;4177450;28;20571;-61
2022/01/05 06:52:04;;;;;;;0.00;0.00;;;6.90;91.30;;;;;;4177541;28;20049;-61
2022/01/05 06:54:47;;;;;;;0.00;0.00;;;6.90;91.40;;;;;;4177619;28;20048;-60
2022/01/05 06:57:22;;;;;;;0.00;0.00;;;7.00;91.30;;;;;;4163729;28;20049;-61
2022/01/05 07:00:05;;;;;;;0.00;0.00;;;7.00;91.40;;;;;;4149174;28;20042;-60
2022/01/05 07:02:41;;;;;;;0.00;0.00;;;7.00;91.40;;;;;;4177254;28;20057;-60
2022/01/05 07:05:23;;;;;;;0.00;0.00;;;6.80;91.40;;;;;;4179707;28;20037;-62
2022/01/05 07:08:06;;;;;;;0.00;0.00;;;6.50;91.90;;;;;;4193995;28;20113;-62
2022/01/05 07:10:41;;;;;;;0.00;0.00;;;6.30;92.00;;;;;;4193695;28;20048;-61
2022/01/05 07:13:23;;;;;;;0.00;0.00;;;6.20;91.80;;;;;;4179950;28;20378;-60
2022/01/05 07:15:59;;;;;;;0.00;0.00;;;6.00;91.70;;;;;;4179611;28;20139;-60
2022/01/05 07:18:41;;;;;;;0.00;0.00;;;5.70;91.60;;;;;;4168809;28;20465;-60
2022/01/05 07:21:18;;;;;;;0.00;0.00;;;5.60;92.00;;;;;;4193557;28;20084;-62
2022/01/05 07:23:57;;;;;;;0.00;0.00;;;5.60;92.00;;;;;;4179888;28;20091;-60
2022/01/05 07:26:39;;;;;;;0.00;0.00;;;5.50;91.70;;;;;;4193402;28;20052;-60
2022/01/05 07:29:24;;;;;;;0.00;0.00;;;5.50;91.80;;;;;;4193615;28;20045;-59
2022/01/05 07:32:07;;;;;;;0.00;0.00;;;5.60;91.70;;;;;;4193132;28;20044;-60
2022/01/05 07:34:50;;;;;;;0.00;0.00;;;5.50;91.60;;;;;;4193427;28;20060;-61
2022/01/05 07:37:25;;;;;;;0.00;0.00;;;5.60;91.30;;;;;;4166576;28;20057;-60
2022/01/05 07:40:08;;;;;;;0.00;0.00;;;5.60;91.20;;;;;;4179378;28;20069;-60
2022/01/05 07:42:36;;;;;;;0.00;0.00;;;5.60;90.90;;;;;;4193239;28;20048;-60
2022/01/05 07:45:19;;;;;;;0.00;0.00;;;5.70;90.90;;;;;;4193140;28;20060;-61
2022/01/05 07:47:54;;;;;;;0.00;0.00;;;5.70;91.00;;;;;;4179292;28;20135;-60
2022/01/05 07:50:36;;;;;;;0.00;0.00;;;5.90;91.00;;;;;;4193516;28;20631;-61
2022/01/05 07:53:18;;;;;;;0.00;0.00;;;6.10;90.80;;;;;;4193224;28;20113;-61
2022/01/05 07:56:00;;;;;;;0.00;0.00;;;6.20;90.60;;;;;;4193314;28;20409;-60
2022/01/05 07:58:36;;;;;;;0.00;0.00;;;6.10;90.50;;;;;;4179391;28;20059;-61
2022/01/05 08:01:19;;;;;;;0.00;0.00;;;6.20;90.60;;;;;;4178925;28;20048;-60
2022/01/05 08:03:55;;;;;;;0.00;0.00;;;6.20;90.60;;;;;;4179142;28;20456;-61
2022/01/05 08:06:37;;;;;;;0.00;0.00;;;6.20;90.60;;;;;;4178722;28;20045;-60
2022/01/05 08:09:19;;;;;;;0.00;0.00;;;6.20;90.40;;;;;;4193363;28;20102;-60
2022/01/05 08:12:01;;;;;;;0.00;0.00;;;6.20;90.60;;;;;;4179627;28;20045;-60
2022/01/05 08:14:36;;;;;;;0.00;0.00;;;6.20;90.50;;;;;;4168721;28;20046;-61
2022/01/05 08:17:18;;;;;;;0.00;0.00;;;6.30;90.50;;;;;;4196425;28;20041;-61
2022/01/05 08:19:54;;;;;;;0.00;0.00;;;6.30;90.40;;;;;;4196618;28;20185;-61
2022/01/05 08:22:36;;;;;;;0.00;0.00;;;6.20;90.30;;;;;;4196491;28;20667;-61
2022/01/05 08:25:15;;;;;;;0.00;0.00;;;6.30;90.30;;;;;;4182619;28;20057;-61
2022/01/05 08:27:51;;;;;;;0.00;0.00;;;6.30;90.00;;;;;;4191496;28;20045;-61
2022/01/05 08:30:40;;;;;;;0.00;0.00;;;6.30;90.10;;;;;;4182393;28;20053;-61
2022/01/05 08:33:17;;;;;;;0.00;0.00;;;6.30;89.90;;;;;;4165704;28;20136;-61
2022/01/05 08:36:01;;;;;;;0.00;0.00;;;6.30;90.00;;;;;;4166113;28;20049;-61
2022/01/05 08:38:37;;;;;;;0.00;0.00;;;6.40;90.00;;;;;;4179571;28;20049;-61
2022/01/05 08:41:19;;;;;;;0.00;0.00;;;6.40;89.90;;;;;;4165339;28;20099;-61
2022/01/05 08:43:54;;;;;;;0.00;0.00;;;6.30;89.80;;;;;;4165570;28;20104;-60
2022/01/05 08:46:36;;;;;;;0.00;0.00;;;6.30;90.00;;;;;;4165387;28;20160;-61
2022/01/05 08:49:12;;;;;;;0.00;0.00;;;6.40;90.00;;;;;;4165471;28;20131;-60
2022/01/05 08:51:54;;;;;;;0.00;0.00;;;6.40;89.80;;;;;;4165250;28;20045;-60
2022/01/05 08:54:29;;;;;;;0.00;0.00;;;6.50;89.60;;;;;;4165494;28;20151;-60
2022/01/05 08:57:12;;;;;;;0.00;0.00;;;6.50;88.90;;;;;;4151554;28;20054;-60
2022/01/05 08:59:51;;;;;;;0.00;0.00;;;6.50;88.50;;;;;;4165297;28;20067;-60
2022/01/05 09:02:33;;;;;;;0.00;0.00;;;6.40;88.20;;;;;;4165267;28;20081;-60
2022/01/05 09:05:09;;;;;;;0.00;0.00;;;6.30;88.50;;;;;;4151819;28;20442;-60
2022/01/05 09:07:51;;;;;;;0.00;0.00;;;6.40;88.20;;;;;;4165474;28;20430;-61
2022/01/05 09:10:27;;;;;;;0.00;0.00;;;6.50;88.20;;;;;;4165053;28;20053;-60
2022/01/05 09:13:12;;;;;;;0.00;0.00;;;6.50;88.10;;;;;;4165180;28;20041;-61
2022/01/05 09:15:47;;;;;;;0.00;0.00;;;6.50;87.80;;;;;;4165332;28;20081;-60
2022/01/05 09:18:29;;;;;;;0.00;0.00;;;6.50;87.30;;;;;;4164945;28;20050;-60
2022/01/05 09:21:11;;;;;;;0.00;0.00;;;6.50;87.00;;;;;;4164683;28;20100;-61
2022/01/05 09:23:50;;;;;;;0.00;0.00;;;6.50;87.40;;;;;;4178396;28;20090;-60
2022/01/05 09:26:33;;;;;;;0.00;0.00;;;6.50;87.50;;;;;;4164583;28;20131;-61
2022/01/05 09:29:08;;;;;;;0.00;0.00;;;6.50;87.30;;;;;;4151046;28;20530;-60
2022/01/05 09:31:51;;;;;;;0.00;0.00;;;6.60;87.20;;;;;;4164870;28;20594;-60
2022/01/05 09:34:34;;;;;;;0.00;0.00;;;6.50;86.70;;;;;;4164773;28;20064;-60
2022/01/05 09:37:24;;;;;;;0.00;0.00;;;6.50;86.30;;;;;;4164979;28;20064;-60
2022/01/05 09:43:01;;;;;;;0.00;0.00;;;6.20;86.50;;;;;;4165072;28;20491;-60
2022/01/05 09:46:05;;;;;;;0.00;0.00;;;6.30;86.70;;;;;;4178532;28;20048;-60
2022/01/05 09:49:10;;;;;;;0.00;0.00;;;6.10;86.30;;;;;;4164814;28;20120;-60
2022/01/05 09:52:00;;;;;;;0.00;0.00;;;6.00;86.40;;;;;;4164538;28;20576;-60
2022/01/05 09:54:29;;;;;;;0.00;0.00;;;5.70;86.80;;;;;;4164717;28;20514;-60
2022/01/05 09:57:12;;;;;;;0.00;0.00;;;5.70;87.70;;;;;;4164479;28;20061;-60
2022/01/05 09:59:56;;;;;;;0.00;0.00;;;5.70;87.00;;;;;;4164557;28;20404;-60
2022/01/05 10:02:39;;;;;;;0.00;0.00;;;5.60;87.00;;;;;;4164423;28;20589;-60
2022/01/05 10:05:28;;;;;;;0.00;0.00;;;5.50;87.70;;;;;;4152564;28;20056;-60
2022/01/05 10:07:57;;;;;;;0.00;0.00;;;5.50;87.90;;;;;;4178203;28;20056;-60
2022/01/05 10:10:53;;;;;;;0.00;0.00;;;5.50;86.50;;;;;;4163913;28;20100;-60
2022/01/05 10:13:35;;;;;;;0.00;0.00;;;5.50;85.00;;;;;;4178042;28;20045;-60
2022/01/05 10:16:12;;;;;;;0.00;0.00;;;5.60;84.50;;;;;;4178011;28;20064;-60
2022/01/05 10:18:54;;;;;;;0.00;0.00;;;5.50;84.70;;;;;;4164152;28;20064;-60
2022/01/05 10:21:39;;;;;;;0.00;0.00;;;5.60;85.10;;;;;;4164118;28;20058;-61
2022/01/05 10:24:47;;;;;;;0.00;0.00;;;5.70;85.20;;;;;;4164250;28;20600;-60
2022/01/05 10:27:24;;;;;;;0.00;0.00;;;5.70;85.40;;;;;;4162644;28;20053;-60
2022/01/05 10:30:18;;;;;;;0.00;0.00;;;5.60;86.20;;;;;;4163710;28;20053;-60
2022/01/05 10:33:03;;;;;;;0.00;0.00;;;5.50;86.40;;;;;;4164073;28;20129;-60
2022/01/05 10:35:56;;;;;;;0.00;0.00;;;5.50;86.80;;;;;;4163209;28;20065;-60
2022/01/05 10:38:35;;;;;;;0.00;0.00;;;5.50;87.10;;;;;;4164112;28;20073;-60
2022/01/05 10:41:20;;;;;;;0.00;0.00;;;5.50;86.70;;;;;;4164006;28;20491;-60
2022/01/05 10:44:17;;;;;;;0.00;0.00;;;5.60;86.10;;;;;;4163935;28;20596;-60
2022/01/05 10:47:00;;;;;;;0.00;0.00;;;5.50;86.30;;;;;;4163845;28;20123;-60
2022/01/05 10:49:40;;;;;;;0.00;0.00;;;5.70;85.90;;;;;;4163476;28;20111;-61
2022/01/05 10:52:37;;;;;;;0.00;0.00;;;5.80;85.40;;;;;;4163414;28;20140;-61
2022/01/05 10:55:21;;;;;;;0.00;0.00;;;5.80;84.70;;;;;;4163720;28;20049;-61
2022/01/05 10:58:07;;;;;;;0.00;0.00;;;5.80;84.90;;;;;;4163845;28;20053;-60
2022/01/05 11:00:51;;;;;;;0.00;0.00;;;5.80;84.20;;;;;;4163150;28;20068;-60
2022/01/05 11:03:39;;;;;;;0.00;0.00;;;5.80;84.50;;;;;;4163427;28;20120;-61
2022/01/05 11:06:21;;;;;;;0.00;0.00;;;6.00;83.90;;;;;;4163670;28;20460;-61
2022/01/05 11:09:00;;;;;;;0.00;0.00;;;6.00;84.10;;;;;;4163316;28;20060;-60
2022/01/05 11:11:44;;;;;;;0.00;0.00;;;5.90;82.90;;;;;;4163161;28;20041;-59
2022/01/05 11:14:36;;;;;;;0.00;0.00;;;5.90;83.30;;;;;;4177171;28;20051;-59
2022/01/05 11:17:23;;;;;;;0.00;0.00;;;5.90;83.10;;;;;;4163473;28;20123;-60
2022/01/05 11:20:09;;;;;;;0.00;0.00;;;5.70;81.70;;;;;;4163132;28;20049;-59
2022/01/05 11:22:51;;;;;;;0.00;0.00;;;5.70;82.30;;;;;;4163259;28;20107;-60
2022/01/05 11:25:51;;;;;;;0.00;0.00;;;5.80;81.90;;;;;;4163281;28;20136;-60
2022/01/05 11:28:40;;;;;;;0.00;0.00;;;5.80;81.80;;;;;;4161787;28;20103;-60
2022/01/05 11:31:22;;;;;;;0.00;0.00;;;5.80;81.70;;;;;;4163162;28;20060;-59
2022/01/05 11:34:05;;;;;;;0.00;0.00;;;5.90;81.70;;;;;;4163439;28;20046;-59
2022/01/05 11:36:42;;;;;;;0.00;0.00;;;5.80;81.60;;;;;;4163166;28;20045;-59
2022/01/05 11:39:25;;;;;;;0.00;0.00;;;5.60;82.30;;;;;;4162793;28;20099;-59
2022/01/05 11:42:07;;;;;;;0.00;0.00;;;5.70;81.60;;;;;;4176716;28;20056;-60
2022/01/05 11:45:02;;;;;;;0.00;0.00;;;5.70;80.60;;;;;;4162992;28;20037;-60
2022/01/05 11:47:48;;;;;;;0.00;0.00;;;5.70;80.50;;;;;;4161913;28;20055;-63
2022/01/05 11:50:26;;;;;;;0.00;0.00;;;5.80;80.30;;;;;;4162850;28;20053;-60
2022/01/05 11:53:09;;;;;;;0.00;0.00;;;5.70;79.80;;;;;;4165292;28;20048;-60
2022/01/05 11:56:01;;;;;;;0.00;0.00;;;5.80;79.60;;;;;;4162937;28;20049;-59
2022/01/05 11:59:06;;;;;;;0.00;0.00;;;5.90;79.80;;;;;;4162935;28;20139;-58
2022/01/05 12:02:02;;;;;;;0.00;0.00;;;5.90;78.70;;;;;;4162671;28;20107;-60
2022/01/05 12:05:17;;;;;;;0.00;0.00;;;5.60;78.80;;;;;;4162969;28;20045;-60
2022/01/05 12:07:59;;;;;;;0.00;0.00;;;5.70;79.00;;;;;;4115480;28;20051;-61
2022/01/05 12:10:59;;;;;;;0.00;0.00;;;5.90;78.70;;;;;;4115326;28;20061;-59
2022/01/05 12:13:36;;;;;;;0.00;0.00;;;5.90;77.50;;;;;;4115835;28;20547;-59
2022/01/05 12:16:18;;;;;;;0.00;0.00;;;5.90;76.80;;;;;;4115855;28;20094;-59
2022/01/05 12:19:20;;;;;;;0.00;0.00;;;5.90;75.90;;;;;;4115416;28;20050;-60
2022/01/05 12:22:04;;;;;;;0.00;0.00;;;5.80;75.50;;;;;;4115370;28;20054;-59
2022/01/05 12:25:03;;;;;;;0.00;0.00;;;5.80;75.50;;;;;;4115601;28;20043;-61
2022/01/05 12:27:58;;;;;;;0.00;0.00;;;5.80;74.90;;;;;;4114968;28;20552;-59
2022/01/05 12:30:42;;;;;;;0.00;0.00;;;5.60;74.10;;;;;;4115248;28;20109;-60
2022/01/05 12:33:25;;;;;;;0.00;0.00;;;5.40;72.90;;;;;;4115280;28;20062;-61
2022/01/05 12:36:02;;;;;;;0.00;0.00;;;5.50;73.40;;;;;;4115321;28;20051;-61
2022/01/05 12:38:57;;;;;;;0.00;0.00;;;5.60;72.80;;;;;;4115284;28;20055;-60
2022/01/05 12:41:43;;;;;;;0.00;0.00;;;5.70;73.00;;;;;;4128789;28;20043;-61
2022/01/05 12:44:30;;;;;;;0.00;0.00;;;5.80;72.30;;;;;;4146170;28;20128;-60
2022/01/05 12:47:17;;;;;;;0.00;0.00;;;5.90;72.00;;;;;;4145983;28;20065;-59
2022/01/05 12:50:16;;;;;;;0.00;0.00;;;6.10;71.90;;;;;;4146143;28;20539;-59
2022/01/05 12:52:59;;;;;;;0.00;0.00;;;6.20;71.90;;;;;;4146178;28;20519;-59
2022/01/05 12:55:43;;;;;;;0.00;0.00;;;6.30;71.80;;;;;;4146155;28;20061;-59
2022/01/05 12:58:25;;;;;;;0.00;0.00;;;6.40;71.70;;;;;;4150023;28;20045;-60
2022/01/05 13:01:02;;;;;;;0.00;0.00;;;6.40;71.70;;;;;;4177736;28;20060;-60
2022/01/05 13:03:44;;;;;;;0.00;0.00;;;6.40;71.10;;;;;;4165199;28;20065;-61
2022/01/05 13:06:33;;;;;;;0.00;0.00;;;6.40;71.00;;;;;;4165353;28;20434;-59
2022/01/05 13:09:33;;;;;;;0.00;0.00;;;6.40;71.20;;;;;;4153440;28;20053;-60
2022/01/05 13:12:12;;;;;;;0.00;0.00;;;6.50;71.60;;;;;;4165024;28;20104;-61
2022/01/05 13:15:06;;;;;;;0.00;0.00;;;6.40;71.10;;;;;;4165211;28;20050;-62
2022/01/05 13:17:43;;;;;;;0.00;0.00;;;6.50;71.30;;;;;;4140188;28;20439;-62
2022/01/05 13:20:25;;;;;;;0.00;0.00;;;6.50;70.80;;;;;;4165071;28;20503;-63
2022/01/05 13:23:07;;;;;;;0.00;0.00;;;6.60;70.60;;;;;;4165274;28;20037;-62
2022/01/05 13:25:47;;;;;;;0.00;0.00;;;6.70;70.40;;;;;;4178984;28;20646;-62
2022/01/05 13:28:44;;;;;;;0.00;0.00;;;6.50;70.30;;;;;;4160205;28;20061;-61
2022/01/05 13:31:13;;;;;;;0.00;0.00;;;6.30;70.20;;;;;;4195149;28;20114;-61
2022/01/05 13:34:06;;;;;;;0.00;0.00;;;6.10;69.90;;;;;;4169763;28;20186;-61
2022/01/05 13:36:41;;;;;;;0.00;0.00;;;6.20;70.30;;;;;;4181734;28;20527;-61
2022/01/05 13:39:47;;;;;;;0.00;0.00;;;6.10;70.10;;;;;;4170431;28;20584;-61
2022/01/05 13:42:48;;;;;;;0.00;0.00;;;6.00;69.40;;;;;;4180939;28;20098;-61
2022/01/05 13:45:48;;;;;;;0.00;0.00;;;5.90;69.70;;;;;;4181353;28;20518;-62
2022/01/05 13:48:35;;;;;;;0.00;0.00;;;5.80;69.20;;;;;;4194959;28;20052;-60
2022/01/05 13:51:11;;;;;;;0.00;0.00;;;5.80;69.20;;;;;;4194662;28;20063;-62
2022/01/05 13:53:54;;;;;;;0.00;0.00;;;5.70;69.40;;;;;;4195061;28;20504;-62
2022/01/05 13:56:39;;;;;;;0.00;0.00;;;5.70;69.80;;;;;;4180872;28;20053;-61
2022/01/05 13:59:21;;;;;;;0.00;0.00;;;5.80;69.30;;;;;;4180928;28;20410;-60
2022/01/05 14:01:59;;;;;;;0.00;0.00;;;6.00;69.10;;;;;;4180709;28;20041;-63
2022/01/05 14:05:03;;;;;;;0.00;0.00;;;6.10;68.00;;;;;;4195026;28;20106;-61
2022/01/05 14:07:40;;;;;;;0.00;0.00;;;6.20;67.50;;;;;;4194814;28;20102;-61
2022/01/05 14:10:27;;;;;;;0.00;0.00;;;6.30;67.40;;;;;;4193262;28;20041;-62
2022/01/05 14:13:13;;;;;;;0.00;0.00;;;6.20;67.10;;;;;;4194833;28;20088;-61
2022/01/05 14:16:03;;;;;;;0.00;0.00;;;6.30;66.60;;;;;;4194537;28;20056;-62
2022/01/05 14:18:44;;;;;;;0.00;0.00;;;6.20;66.80;;;;;;4194698;28;20049;-61
2022/01/05 14:21:28;;;;;;;0.00;0.00;;;6.30;65.80;;;;;;4194413;28;20398;-61